createdAt,value
2023-02-28T00:00:48.765Z,101354.88
2023-02-28T00:03:17.898Z,101353.13
2023-02-28T00:05:46.155Z,101355.75
2023-02-28T00:08:14.697Z,101351.44
2023-02-28T00:10:43.523Z,101351.34
2023-02-28T00:13:12.451Z,101352.22
2023-02-28T00:15:40.484Z,101373.53
2023-02-28T00:18:08.756Z,101364.97
2023-02-28T00:20:36.934Z,101359.59
2023-02-28T00:23:05.766Z,101357.94
2023-02-28T00:25:33.823Z,101361.59
2023-02-28T00:28:02.180Z,101376.72
2023-02-28T00:30:31.158Z,101358.06
2023-02-28T00:33:00.675Z,101365.19
2023-02-28T00:35:29.086Z,101352.84
2023-02-28T00:38:02.814Z,101362.59
2023-02-28T00:40:31.210Z,101357.28
2023-02-28T00:43:01.229Z,101352.97
2023-02-28T00:45:29.771Z,101354.91
2023-02-28T00:47:57.963Z,101363.69
2023-02-28T00:50:26.400Z,101366.50
2023-02-28T00:52:55.671Z,101368.88
2023-02-28T00:55:24.282Z,101384.16
2023-02-28T00:57:53.602Z,101382.59
2023-02-28T01:00:23.801Z,101372.78
2023-02-28T01:02:52.064Z,101367.50
2023-02-28T01:05:20.926Z,101367.50
2023-02-28T01:07:49.361Z,101370.22
2023-02-28T01:10:23.795Z,101376.38
2023-02-28T01:12:52.710Z,101386.25
2023-02-28T01:15:20.971Z,101390.59
2023-02-28T01:17:49.585Z,101404.53
2023-02-28T01:20:18.080Z,101405.69
2023-02-28T01:22:46.411Z,101408.47
2023-02-28T01:25:17.736Z,101410.44
2023-02-28T01:27:46.789Z,101405.19
2023-02-28T01:30:15.959Z,101393.53
2023-02-28T01:32:44.609Z,101394.47
2023-02-28T01:35:12.962Z,101395.34
2023-02-28T01:37:42.697Z,101397.25
2023-02-28T01:40:12.326Z,101407.91
2023-02-28T01:42:41.185Z,101405.28
2023-02-28T01:45:22.325Z,101410.78
2023-02-28T01:47:54.286Z,101397.59
2023-02-28T01:50:27.684Z,101405.56
2023-02-28T01:53:00.377Z,101384.56
2023-02-28T01:55:31.646Z,101377.38
2023-02-28T01:58:04.750Z,101380.09
2023-02-28T02:00:33.909Z,101396.41
2023-02-28T02:03:10.569Z,101404.19
2023-02-28T02:05:41.025Z,101402.50
2023-02-28T02:08:14.077Z,101411.44
2023-02-28T02:10:46.030Z,101419.44
2023-02-28T02:13:36.320Z,101427.56
2023-02-28T02:16:22.838Z,101426.59
2023-02-28T02:19:06.385Z,101434.38
2023-02-28T02:21:40.332Z,101453.22
2023-02-28T02:24:38.308Z,101445.97
2023-02-28T02:27:20.269Z,101466.25
2023-02-28T02:30:17.692Z,101467.19
2023-02-28T02:33:05.534Z,101464.47
2023-02-28T02:35:51.842Z,101465.50
2023-02-28T02:38:27.944Z,101470.78
2023-02-28T02:41:19.887Z,101476.00
2023-02-28T02:43:53.675Z,101478.75
2023-02-28T02:46:34.761Z,101466.06
2023-02-28T02:49:06.485Z,101471.47
2023-02-28T02:51:35.572Z,101476.78
2023-02-28T02:54:09.733Z,101479.38
2023-02-28T02:56:40.955Z,101479.31
2023-02-28T02:59:11.921Z,101489.13
2023-02-28T03:01:44.528Z,101504.09
2023-02-28T03:04:16.403Z,101504.19
2023-02-28T03:06:44.420Z,101513.88
2023-02-28T03:09:12.877Z,101512.94
2023-02-28T03:11:42.178Z,101521.72
2023-02-28T03:14:38.802Z,101545.66
2023-02-28T03:17:34.900Z,101544.75
2023-02-28T03:20:34.159Z,101545.59
2023-02-28T03:23:08.371Z,101540.16
2023-02-28T03:25:57.512Z,101557.13
2023-02-28T03:28:46.145Z,101556.16
2023-02-28T03:31:18.488Z,101564.16
2023-02-28T03:33:57.601Z,101551.78
2023-02-28T03:36:32.179Z,101543.91
2023-02-28T03:39:07.020Z,101541.31
2023-02-28T03:42:11.341Z,101543.16
2023-02-28T03:44:48.160Z,101555.53
2023-02-28T03:47:25.898Z,101562.56
2023-02-28T03:49:59.052Z,101563.47
2023-02-28T03:52:30.794Z,101562.56
2023-02-28T03:55:07.917Z,101554.81
2023-02-28T03:57:45.465Z,101560.88
2023-02-28T04:00:21.983Z,101560.84
2023-02-28T04:02:53.978Z,101564.38
2023-02-28T04:05:26.534Z,101570.47
2023-02-28T04:08:08.169Z,101572.94
2023-02-28T04:10:38.781Z,101587.13
2023-02-28T04:13:10.527Z,101580.91
2023-02-28T04:15:38.989Z,101581.75
2023-02-28T04:18:11.956Z,101583.34
2023-02-28T04:20:40.039Z,101593.84
2023-02-28T04:23:11.026Z,101595.63
2023-02-28T04:25:41.871Z,101594.56
2023-02-28T04:28:12.826Z,101608.63
2023-02-28T04:30:42.615Z,101607.75
2023-02-28T04:33:10.757Z,101612.16
2023-02-28T04:35:39.990Z,101608.81
2023-02-28T04:38:08.528Z,101610.50
2023-02-28T04:40:37.609Z,101616.63
2023-02-28T04:43:17.036Z,101618.38
2023-02-28T04:45:46.477Z,101618.16
2023-02-28T04:48:15.190Z,101619.06
2023-02-28T04:50:43.047Z,101622.50
2023-02-28T04:53:11.483Z,101618.94
2023-02-28T04:55:41.515Z,101616.34
2023-02-28T04:58:10.101Z,101626.03
2023-02-28T05:00:39.521Z,101619.94
2023-02-28T05:03:07.973Z,101626.22
2023-02-28T05:05:41.993Z,101627.84
2023-02-28T05:08:10.855Z,101640.97
2023-02-28T05:10:43.076Z,101641.78
2023-02-28T05:13:14.670Z,101645.31
2023-02-28T05:15:42.701Z,101649.69
2023-02-28T05:18:13.020Z,101645.41
2023-02-28T05:20:42.102Z,101654.09
2023-02-28T05:23:12.980Z,101651.44
2023-02-28T05:25:42.578Z,101649.53
2023-02-28T05:28:11.404Z,101646.03
2023-02-28T05:30:42.983Z,101640.66
2023-02-28T05:33:13.485Z,101637.00
2023-02-28T05:35:45.644Z,101649.13
2023-02-28T05:38:14.379Z,101636.56
2023-02-28T05:40:42.247Z,101654.22
2023-02-28T05:43:13.591Z,101657.75
2023-02-28T05:45:41.658Z,101669.16
2023-02-28T05:48:09.899Z,101665.56
2023-02-28T05:50:37.936Z,101659.38
2023-02-28T05:53:06.529Z,101665.19
2023-02-28T05:55:34.867Z,101667.81
2023-02-28T05:58:03.312Z,101675.41
2023-02-28T06:00:32.114Z,101672.50
2023-02-28T06:03:03.471Z,101665.25
2023-02-28T06:05:33.028Z,101662.47
2023-02-28T06:08:01.428Z,101666.03
2023-02-28T06:10:33.229Z,101677.72
2023-02-28T06:13:05.545Z,101680.47
2023-02-28T06:15:33.941Z,101688.56
2023-02-28T06:18:06.122Z,101681.56
2023-02-28T06:20:36.599Z,101677.66
2023-02-28T06:23:07.125Z,101677.56
2023-02-28T06:25:36.398Z,101684.53
2023-02-28T06:28:07.515Z,101688.03
2023-02-28T06:30:35.283Z,101686.16
2023-02-28T06:33:06.350Z,101688.13
2023-02-28T06:35:34.972Z,101684.44
2023-02-28T06:38:03.403Z,101685.94
2023-02-28T06:40:35.579Z,101688.13
2023-02-28T06:43:04.567Z,101690.19
2023-02-28T06:45:32.963Z,101684.94
2023-02-28T06:48:04.119Z,101682.75
2023-02-28T06:50:34.759Z,101688.06
2023-02-28T06:53:02.993Z,101694.13
2023-02-28T06:55:31.408Z,101688.16
2023-02-28T06:58:00.332Z,101688.56
2023-02-28T07:00:28.726Z,101698.19
2023-02-28T07:02:57.112Z,101699.19
2023-02-28T07:05:25.396Z,101707.06
2023-02-28T07:07:55.910Z,101707.09
2023-02-28T07:10:24.215Z,101704.31
2023-02-28T07:12:53.510Z,101710.38
2023-02-28T07:15:22.136Z,101716.16
2023-02-28T07:17:50.163Z,101709.50
2023-02-28T07:20:21.367Z,101689.63
2023-02-28T07:22:56.878Z,101693.13
2023-02-28T07:25:29.067Z,101700.31
2023-02-28T07:28:01.866Z,101699.06
2023-02-28T07:30:30.521Z,101694.06
2023-02-28T07:32:59.717Z,101695.66
2023-02-28T07:35:27.729Z,101695.47
2023-02-28T07:38:00.262Z,101688.06
2023-02-28T07:40:28.636Z,101699.25
2023-02-28T07:42:57.376Z,101685.53
2023-02-28T07:45:25.565Z,101695.78
2023-02-28T07:47:53.720Z,101688.44
2023-02-28T07:50:21.880Z,101692.78
2023-02-28T07:52:50.725Z,101697.81
2023-02-28T07:55:19.261Z,101696.88
2023-02-28T07:57:50.719Z,101711.44
2023-02-28T08:00:19.021Z,101699.13
2023-02-28T08:02:47.705Z,101693.09
2023-02-28T08:05:21.975Z,101697.66
2023-02-28T08:07:54.937Z,101699.00
2023-02-28T08:10:23.197Z,101696.34
2023-02-28T08:12:52.686Z,101706.59
2023-02-28T08:15:21.080Z,101709.13
2023-02-28T08:17:49.937Z,101705.84
2023-02-28T08:20:18.107Z,101695.03
2023-02-28T08:22:48.116Z,101700.97
2023-02-28T08:25:16.649Z,101711.00
2023-02-28T08:27:44.567Z,101713.56
2023-02-28T08:30:15.408Z,101720.97
2023-02-28T08:32:44.376Z,101713.91
2023-02-28T08:35:12.702Z,101722.84
2023-02-28T08:37:41.279Z,101725.25
2023-02-28T08:40:11.832Z,101713.47
2023-02-28T08:42:40.166Z,101702.00
2023-02-28T08:45:08.483Z,101715.97
2023-02-28T08:47:40.503Z,101722.81
2023-02-28T08:50:11.059Z,101714.47
2023-02-28T08:52:40.164Z,101725.13
2023-02-28T08:55:09.437Z,101721.66
2023-02-28T08:57:39.039Z,101724.38
2023-02-28T09:00:14.963Z,101720.19
2023-02-28T09:02:43.993Z,101724.28
2023-02-28T09:05:14.510Z,101709.00
2023-02-28T09:07:42.775Z,101724.03
2023-02-28T09:10:12.607Z,101726.63
2023-02-28T09:12:41.439Z,101731.72
2023-02-28T09:15:11.133Z,101727.22
2023-02-28T09:17:39.271Z,101721.28
2023-02-28T09:20:08.414Z,101733.28
2023-02-28T09:22:40.104Z,101739.31
2023-02-28T09:25:08.633Z,101735.22
2023-02-28T09:27:38.749Z,101726.66
2023-02-28T09:30:07.616Z,101722.94
2023-02-28T09:32:37.816Z,101720.13
2023-02-28T09:35:07.062Z,101717.81
2023-02-28T09:37:36.093Z,101720.66
2023-02-28T09:40:05.139Z,101729.41
2023-02-28T09:42:35.332Z,101728.63
2023-02-28T09:45:09.458Z,101718.88
2023-02-28T09:47:46.601Z,101722.06
2023-02-28T09:50:24.650Z,101713.97
2023-02-28T09:52:52.594Z,101719.25
2023-02-28T09:55:41.520Z,101718.19
2023-02-28T09:58:37.466Z,101717.88
2023-02-28T10:01:23.476Z,101717.56
2023-02-28T10:03:58.610Z,101719.69
2023-02-28T10:06:43.509Z,101714.66
2023-02-28T10:09:22.099Z,101708.34
2023-02-28T10:11:53.651Z,101712.81
2023-02-28T10:14:25.677Z,101715.25
2023-02-28T10:17:03.496Z,101715.72
2023-02-28T10:19:55.333Z,101712.16
2023-02-28T10:22:41.848Z,101715.34
2023-02-28T10:25:23.034Z,101717.03
2023-02-28T10:27:58.082Z,101709.00
2023-02-28T10:30:26.273Z,101702.31
2023-02-28T10:32:55.758Z,101702.44
2023-02-28T10:35:26.616Z,101699.63
2023-02-28T10:37:59.421Z,101692.00
2023-02-28T10:40:36.986Z,101698.66
2023-02-28T10:43:24.835Z,101696.84
2023-02-28T10:46:27.859Z,101700.28
2023-02-28T10:49:05.747Z,101696.06
2023-02-28T10:51:44.703Z,101704.59
2023-02-28T10:54:24.253Z,101682.66
2023-02-28T10:57:17.421Z,101683.19
2023-02-28T10:59:45.738Z,101690.97
2023-02-28T11:02:39.385Z,101687.44
2023-02-28T11:05:28.025Z,101680.69
2023-02-28T11:08:06.839Z,101678.47
2023-02-28T11:10:41.162Z,101676.44
2023-02-28T11:13:20.748Z,101678.94
2023-02-28T11:15:55.351Z,101671.09
2023-02-28T11:18:36.119Z,101656.41
2023-02-28T11:21:05.804Z,101668.59
2023-02-28T11:23:37.846Z,101674.28
2023-02-28T11:26:06.746Z,101670.94
2023-02-28T11:28:40.870Z,101679.47
2023-02-28T11:31:23.933Z,101665.44
2023-02-28T11:33:55.112Z,101670.59
2023-02-28T11:36:28.609Z,101670.16
2023-02-28T11:39:04.438Z,101670.25
2023-02-28T11:41:49.045Z,101667.59
2023-02-28T11:44:29.447Z,101665.13
2023-02-28T11:47:14.160Z,101671.50
2023-02-28T11:49:52.128Z,101662.47
2023-02-28T11:52:32.113Z,101663.91
2023-02-28T11:55:10.314Z,101662.19
2023-02-28T11:58:04.531Z,101663.03
2023-02-28T12:00:35.666Z,101660.97
2023-02-28T12:03:25.586Z,101657.09
2023-02-28T12:06:11.406Z,101654.28
2023-02-28T12:08:57.951Z,101650.75
2023-02-28T12:11:36.656Z,101651.16
2023-02-28T12:14:19.793Z,101647.09
2023-02-28T12:16:52.478Z,101645.00
2023-02-28T12:19:21.718Z,101639.50
2023-02-28T12:22:19.159Z,101641.72
2023-02-28T12:24:52.852Z,101646.63
2023-02-28T12:27:25.297Z,101646.00
2023-02-28T12:30:00.415Z,101639.03
2023-02-28T12:32:37.091Z,101640.22
2023-02-28T12:35:08.533Z,101632.16
2023-02-28T12:37:46.381Z,101643.22
2023-02-28T12:40:18.963Z,101651.09
2023-02-28T12:42:51.086Z,101641.44
2023-02-28T12:45:25.683Z,101644.25
2023-02-28T12:48:02.138Z,101650.44
2023-02-28T12:50:35.363Z,101639.66
2023-02-28T12:53:24.722Z,101641.63
2023-02-28T12:56:21.660Z,101641.16
2023-02-28T12:58:53.186Z,101638.38
2023-02-28T13:01:31.452Z,101637.22
2023-02-28T13:04:37.423Z,101633.09
2023-02-28T13:07:11.640Z,101642.09
2023-02-28T13:09:41.141Z,101640.03
2023-02-28T13:12:16.508Z,101641.09
2023-02-28T13:14:47.918Z,101632.94
2023-02-28T13:17:23.287Z,101636.84
2023-02-28T13:19:55.376Z,101633.56
2023-02-28T13:22:27.226Z,101622.38
2023-02-28T13:24:59.162Z,101616.72
2023-02-28T13:28:02.200Z,101620.34
2023-02-28T13:31:00.770Z,101616.13
2023-02-28T13:33:36.259Z,101608.03
2023-02-28T13:36:19.703Z,101610.28
2023-02-28T13:38:49.237Z,101610.84
2023-02-28T13:41:32.842Z,101613.78
2023-02-28T13:44:04.984Z,101605.41
2023-02-28T13:46:36.223Z,101601.75
2023-02-28T13:49:33.614Z,101597.13
2023-02-28T13:52:07.070Z,101603.19
2023-02-28T13:54:57.429Z,101600.69
2023-02-28T13:57:56.392Z,101596.50
2023-02-28T14:00:59.796Z,101586.75
2023-02-28T14:03:47.040Z,101596.78
2023-02-28T14:06:20.542Z,101591.72
2023-02-28T14:08:57.667Z,101607.41
2023-02-28T14:11:37.123Z,101600.25
2023-02-28T14:14:07.942Z,101586.97
2023-02-28T14:16:45.850Z,101602.16
2023-02-28T14:19:29.091Z,101597.19
2023-02-28T14:22:10.950Z,101597.16
2023-02-28T14:25:17.541Z,101603.53
2023-02-28T14:28:27.234Z,101609.19
2023-02-28T14:31:05.010Z,101597.16
2023-02-28T14:33:44.114Z,101610.47
2023-02-28T14:36:20.700Z,101609.66
2023-02-28T14:39:06.607Z,101619.44
2023-02-28T14:41:40.331Z,101609.25
2023-02-28T14:44:19.754Z,101613.06
2023-02-28T14:46:51.835Z,101607.03
2023-02-28T14:49:28.092Z,101609.06
2023-02-28T14:52:18.560Z,101611.94
2023-02-28T14:54:46.635Z,101607.56
2023-02-28T14:57:32.662Z,101603.91
2023-02-28T15:00:15.245Z,101609.97
2023-02-28T15:02:44.611Z,101610.00
2023-02-28T15:05:18.291Z,101607.50
2023-02-28T15:07:47.691Z,101615.63
2023-02-28T15:10:24.914Z,101613.25
2023-02-28T15:13:09.580Z,101621.19
2023-02-28T15:16:04.464Z,101622.16
2023-02-28T15:18:37.883Z,101632.66
2023-02-28T15:21:13.149Z,101619.31
2023-02-28T15:23:43.965Z,101620.97
2023-02-28T15:26:22.013Z,101616.53
2023-02-28T15:28:59.969Z,101609.47
2023-02-28T15:31:55.354Z,101619.97
2023-02-28T15:34:45.341Z,101614.59
2023-02-28T15:37:32.016Z,101614.66
2023-02-28T15:40:11.901Z,101617.41
2023-02-28T15:42:45.594Z,101619.28
2023-02-28T15:45:39.608Z,101623.00
2023-02-28T15:48:29.537Z,101619.47
2023-02-28T15:51:04.226Z,101622.81
2023-02-28T15:54:03.105Z,101620.06
2023-02-28T15:56:48.343Z,101626.16
2023-02-28T15:59:22.984Z,101618.16
2023-02-28T16:02:14.918Z,101619.00
2023-02-28T16:05:12.250Z,101620.69
2023-02-28T16:07:44.956Z,101625.97
2023-02-28T16:10:15.840Z,101633.97
2023-02-28T16:12:44.408Z,101633.03
2023-02-28T16:15:27.652Z,101628.75
2023-02-28T16:17:57.428Z,101641.09
2023-02-28T16:20:32.498Z,101632.19
2023-02-28T16:23:02.746Z,101639.25
2023-02-28T16:25:41.878Z,101634.97
2023-02-28T16:28:32.665Z,101636.97
2023-02-28T16:31:04.004Z,101625.53
2023-02-28T16:33:34.224Z,101630.88
2023-02-28T16:36:03.190Z,101628.19
2023-02-28T16:38:31.667Z,101631.66
2023-02-28T16:41:01.409Z,101629.97
2023-02-28T16:43:30.036Z,101620.28
2023-02-28T16:46:02.841Z,101623.88
2023-02-28T16:48:32.191Z,101620.44
2023-02-28T16:51:05.913Z,101612.53
2023-02-28T16:53:34.243Z,101617.81
2023-02-28T16:56:03.587Z,101617.84
2023-02-28T16:58:31.977Z,101602.84
2023-02-28T17:01:05.987Z,101597.66
2023-02-28T17:03:34.513Z,101606.50
2023-02-28T17:06:02.873Z,101605.97
2023-02-28T17:08:34.315Z,101602.56
2023-02-28T17:11:06.397Z,101597.38
2023-02-28T17:13:40.447Z,101595.69
2023-02-28T17:16:25.182Z,101595.59
2023-02-28T17:18:54.792Z,101594.81
2023-02-28T17:21:23.011Z,101591.31
2023-02-28T17:23:51.796Z,101588.63
2023-02-28T17:26:22.101Z,101604.41
2023-02-28T17:28:52.300Z,101599.28
2023-02-28T17:31:20.894Z,101594.91
2023-02-28T17:33:50.989Z,101590.59
2023-02-28T17:36:28.634Z,101591.50
2023-02-28T17:38:56.913Z,101580.19
2023-02-28T17:41:25.697Z,101595.25
2023-02-28T17:43:54.925Z,101588.97
2023-02-28T17:46:25.608Z,101596.81
2023-02-28T17:48:54.819Z,101594.94
2023-02-28T17:51:26.195Z,101589.63
2023-02-28T17:53:55.691Z,101590.50
2023-02-28T17:56:26.173Z,101581.72
2023-02-28T17:58:58.668Z,101584.34
2023-02-28T18:01:36.802Z,101590.44
2023-02-28T18:04:06.764Z,101593.09
2023-02-28T18:06:47.606Z,101589.56
2023-02-28T18:09:16.851Z,101593.09
2023-02-28T18:11:50.436Z,101590.41
2023-02-28T18:14:20.543Z,101587.88
2023-02-28T18:16:51.371Z,101591.25
2023-02-28T18:19:20.176Z,101591.19
2023-02-28T18:21:51.097Z,101592.06
2023-02-28T18:24:21.315Z,101594.78
2023-02-28T18:26:49.565Z,101603.56
2023-02-28T18:29:23.075Z,101599.22
2023-02-28T18:31:52.376Z,101606.34
2023-02-28T18:34:22.921Z,101597.50
2023-02-28T18:36:53.435Z,101593.16
2023-02-28T18:39:21.658Z,101595.72
2023-02-28T18:41:49.883Z,101599.16
2023-02-28T18:44:20.644Z,101599.16
2023-02-28T18:46:52.209Z,101601.78
2023-02-28T18:49:24.720Z,101598.19
2023-02-28T18:51:55.619Z,101600.03
2023-02-28T18:54:24.128Z,101592.94
2023-02-28T18:56:54.337Z,101590.44
2023-02-28T18:59:23.110Z,101588.75
2023-02-28T19:01:51.925Z,101582.66
2023-02-28T19:04:19.945Z,101587.22
2023-02-28T19:06:48.112Z,101591.84
2023-02-28T19:09:16.502Z,101598.22
2023-02-28T19:11:44.745Z,101603.63
2023-02-28T19:14:13.278Z,101590.44
2023-02-28T19:16:45.621Z,101597.53
2023-02-28T19:19:14.374Z,101592.31
2023-02-28T19:21:43.632Z,101597.75
2023-02-28T19:24:12.639Z,101589.91
2023-02-28T19:26:41.353Z,101594.41
2023-02-28T19:29:09.767Z,101598.00
2023-02-28T19:31:40.661Z,101595.41
2023-02-28T19:34:10.195Z,101602.47
2023-02-28T19:36:38.234Z,101598.13
2023-02-28T19:39:06.743Z,101593.78
2023-02-28T19:41:36.277Z,101591.16
2023-02-28T19:44:04.989Z,101598.28
2023-02-28T19:46:38.050Z,101598.38
2023-02-28T19:49:06.411Z,101590.44
2023-02-28T19:51:39.411Z,101592.25
2023-02-28T19:54:08.588Z,101595.84
2023-02-28T19:56:38.240Z,101595.88
2023-02-28T19:59:12.996Z,101587.97
2023-02-28T20:01:49.851Z,101597.69
2023-02-28T20:04:20.963Z,101590.63
2023-02-28T20:06:56.313Z,101597.72
2023-02-28T20:09:24.738Z,101588.97
2023-02-28T20:11:59.737Z,101588.09
2023-02-28T20:14:31.382Z,101586.25
2023-02-28T20:16:59.826Z,101580.84
2023-02-28T20:19:28.508Z,101583.28
2023-02-28T20:21:58.427Z,101585.66
2023-02-28T20:24:26.651Z,101579.31
2023-02-28T20:26:55.657Z,101584.44
2023-02-28T20:29:24.407Z,101573.78
2023-02-28T20:31:55.646Z,101578.09
2023-02-28T20:34:23.987Z,101579.78
2023-02-28T20:36:56.972Z,101576.22
2023-02-28T20:39:25.513Z,101590.22
2023-02-28T20:41:53.730Z,101584.00
2023-02-28T20:44:24.603Z,101574.22
2023-02-28T20:46:55.468Z,101568.88
2023-02-28T20:49:23.977Z,101572.38
2023-02-28T20:51:52.852Z,101567.03
2023-02-28T20:54:23.680Z,101573.19
2023-02-28T20:56:52.168Z,101566.16
2023-02-28T20:59:22.707Z,101559.94
2023-02-28T21:01:56.540Z,101566.13
2023-02-28T21:04:25.137Z,101573.13
2023-02-28T21:06:54.074Z,101560.69
2023-02-28T21:09:24.912Z,101561.69
2023-02-28T21:11:56.452Z,101564.25
2023-02-28T21:14:32.750Z,101553.69
2023-02-28T21:17:01.319Z,101548.44
2023-02-28T21:19:30.760Z,101548.44
2023-02-28T21:21:59.572Z,101542.34
2023-02-28T21:24:27.766Z,101545.00
2023-02-28T21:26:57.930Z,101541.53
2023-02-28T21:29:26.200Z,101548.00
2023-02-28T21:31:54.643Z,101550.00
2023-02-28T21:34:25.005Z,101547.69
2023-02-28T21:36:53.621Z,101547.94
2023-02-28T21:39:27.478Z,101544.66
2023-02-28T21:41:57.143Z,101537.69
2023-02-28T21:44:28.485Z,101528.97
2023-02-28T21:47:01.258Z,101529.88
2023-02-28T21:49:30.074Z,101529.06
2023-02-28T21:52:02.069Z,101524.75
2023-02-28T21:54:31.057Z,101516.03
2023-02-28T21:57:06.636Z,101519.53
2023-02-28T21:59:45.575Z,101510.81
2023-02-28T22:02:13.882Z,101507.34
2023-02-28T22:04:44.496Z,101507.44
2023-02-28T22:07:13.060Z,101502.22
2023-02-28T22:09:43.087Z,101495.25
2023-02-28T22:12:11.211Z,101489.16
2023-02-28T22:14:42.239Z,101488.25
2023-02-28T22:17:11.112Z,101479.53
2023-02-28T22:19:40.324Z,101487.44
2023-02-28T22:22:08.601Z,101486.63
2023-02-28T22:24:37.654Z,101484.94
2023-02-28T22:27:06.021Z,101478.88
2023-02-28T22:29:34.518Z,101480.66
2023-02-28T22:32:02.758Z,101488.50
2023-02-28T22:34:31.340Z,101487.66
2023-02-28T22:37:00.661Z,101484.13
2023-02-28T22:39:30.776Z,101478.03
2023-02-28T22:42:02.148Z,101486.81
2023-02-28T22:44:31.490Z,101476.28
2023-02-28T22:47:06.503Z,101477.19
2023-02-28T22:49:36.920Z,101477.19
2023-02-28T22:52:05.768Z,101470.25
2023-02-28T22:54:34.024Z,101469.44
2023-02-28T22:57:03.872Z,101467.63
2023-02-28T22:59:32.304Z,101469.41
2023-02-28T23:02:00.350Z,101457.94
2023-02-28T23:04:28.945Z,101456.09
2023-02-28T23:07:00.203Z,101441.16
2023-02-28T23:09:29.558Z,101443.81
2023-02-28T23:12:01.477Z,101446.41
2023-02-28T23:14:29.734Z,101450.84
2023-02-28T23:16:59.004Z,101450.78
2023-02-28T23:19:32.018Z,101449.94
2023-02-28T23:22:01.880Z,101448.22
2023-02-28T23:24:32.744Z,101453.50
2023-02-28T23:27:04.901Z,101447.34
2023-02-28T23:29:34.167Z,101447.28
2023-02-28T23:32:03.113Z,101443.81
2023-02-28T23:34:32.302Z,101435.97
2023-02-28T23:37:02.243Z,101430.66
2023-02-28T23:39:33.818Z,101428.06
2023-02-28T23:42:06.610Z,101421.91
2023-02-28T23:44:35.645Z,101421.91
2023-02-28T23:47:03.820Z,101418.41
2023-02-28T23:49:31.977Z,101417.50
2023-02-28T23:52:03.072Z,101410.44
2023-02-28T23:54:32.331Z,101400.81
2023-02-28T23:57:00.577Z,101393.75
2023-02-28T23:59:29.996Z,101388.50
